This is the latest recevied weather packets stored in our database for station/object SA7AHC. If no packets are shown the sender has not sent any weather packets the latest 10 day(s).
| Time | Temp. | Humidity | Pressure | Rain* | Wind** | Luminosity | Snow |
|---|---|---|---|---|---|---|---|
| 1778050493 | 8.33° C | 42% | 1012.9 hPa | 0 mm | - | 422 W/m² | - |
| 1778049896 | 8.33° C | 43% | 1012.8 hPa | 0 mm | - | 338 W/m² | - |
| 1778049289 | 7.78° C | 43% | 1012.9 hPa | 0 mm | - | 350 W/m² | - |
| 1778048690 | 7.22° C | 45% | 1012.9 hPa | 0 mm | - | 323 W/m² | - |
| 1778048090 | 6.67° C | 44% | 1012.7 hPa | 0 mm | - | 144 W/m² | - |
| 1778047494 | 6.67° C | 43% | 1012.8 hPa | 0 mm | - | 86 W/m² | - |
| 1778046888 | 6.67° C | 45% | 1012.7 hPa | 0 mm | - | 160 W/m² | - |
| 1778046294 | 6.67° C | 47% | 1012.5 hPa | 0 mm | - | 51 W/m² | - |
| 1778045684 | 6.11° C | 51% | 1012.5 hPa | 0 mm | - | 47 W/m² | - |
| 1778045084 | 5.56° C | 52% | 1012.5 hPa | 0 mm | - | 44 W/m² | - |
| 1778044485 | 5.56° C | 52% | 1012.3 hPa | 0 mm | - | 46 W/m² | - |
| 1778043878 | 5° C | 56% | 1012.3 hPa | 0 mm | - | 37 W/m² | - |
| 1778043275 | 4.44° C | 59% | 1012.3 hPa | 0 mm | - | 35 W/m² | - |
| 1778042675 | 4.44° C | 63% | 1012.2 hPa | 0 mm | - | 30 W/m² | - |
| 1778042076 | 3.89° C | 65% | 1012.2 hPa | 0 mm | - | 26 W/m² | - |
| 1778040875 | 2.78° C | 70% | 1012.1 hPa | 0 mm | - | 19 W/m² | - |
| 1778040277 | 2.22° C | 72% | 1011.9 hPa | 0 mm | - | 18 W/m² | - |
| 1778039679 | 1.67° C | 73% | 1011.9 hPa | 0 mm | - | 16 W/m² | - |
| 1778039077 | 1.11° C | 73% | 1011.8 hPa | 0 mm | - | 14 W/m² | - |
| 1778038477 | 0.56° C | 73% | 1011.9 hPa | 0 mm | - | 11 W/m² | - |
| 1778037872 | 0.56° C | 74% | 1011.8 hPa | 0 mm | - | 9 W/m² | - |
| 1778037268 | 0° C | 76% | 1011.8 hPa | 0 mm | - | 7 W/m² | - |
| 1778036661 | 0° C | 75% | 1011.8 hPa | 0 mm | - | 0 W/m² | - |
| 1778036056 | 0.56° C | 72% | 1011.8 hPa | 0 mm | - | 0 W/m² | - |
| 1778035467 | 0.56° C | 71% | 1011.8 hPa | 0 mm | - | 0 W/m² | - |
* Rain latest hour (hover to see other rain measurements)
** Current wind speed in m/s (hover to see current wind gust speed)